createdAt,value
2022-10-06T00:04:30.642Z,1.20
2022-10-06T00:09:32.923Z,1.20
2022-10-06T00:14:35.411Z,1.30
2022-10-06T00:19:56.340Z,1.10
2022-10-06T00:24:58.484Z,1.13
2022-10-06T00:30:00.661Z,1.27
2022-10-06T00:35:02.895Z,1.30
2022-10-06T00:40:24.515Z,1.37
2022-10-06T00:45:34.084Z,1.30
2022-10-06T00:50:36.618Z,1.80
2022-10-06T00:55:39.032Z,1.20
2022-10-06T01:00:42.637Z,1.00
2022-10-06T01:05:47.652Z,1.20
2022-10-06T01:10:49.774Z,1.13
2022-10-06T01:16:11.124Z,1.50
2022-10-06T01:21:23.147Z,1.30
2022-10-06T01:26:26.315Z,1.10
2022-10-06T01:31:40.976Z,1.27
2022-10-06T01:36:43.596Z,1.40
2022-10-06T01:42:04.933Z,1.23
2022-10-06T01:47:08.242Z,1.43
2022-10-06T01:52:10.849Z,1.60
2022-10-06T01:57:13.319Z,1.10
2022-10-06T02:02:24.720Z,1.10
2022-10-06T02:07:27.573Z,1.40
2022-10-06T02:12:32.001Z,1.37
2022-10-06T02:17:35.689Z,1.70
2022-10-06T02:22:39.623Z,1.60
2022-10-06T02:27:41.791Z,1.40
2022-10-06T02:32:46.305Z,1.17
2022-10-06T02:37:49.461Z,1.57
2022-10-06T02:43:12.865Z,1.60
2022-10-06T02:48:15.341Z,2.00
2022-10-06T02:53:17.610Z,1.60
2022-10-06T02:58:43.028Z,1.70
2022-10-06T03:03:48.599Z,1.90
2022-10-06T03:09:00.964Z,1.83
2022-10-06T03:14:05.236Z,1.70
2022-10-06T03:19:08.510Z,2.40
2022-10-06T03:24:11.662Z,1.70
2022-10-06T03:29:16.228Z,1.90
2022-10-06T03:34:41.614Z,1.73
2022-10-06T03:39:47.821Z,2.30
2022-10-06T03:44:50.410Z,2.03
2022-10-06T03:49:52.653Z,2.30
2022-10-06T03:54:54.877Z,2.53
2022-10-06T04:00:00.009Z,2.27
2022-10-06T04:05:02.395Z,2.63
2022-10-06T04:10:06.155Z,2.57
2022-10-06T04:15:27.361Z,2.57
2022-10-06T04:20:29.837Z,2.40
2022-10-06T04:25:33.094Z,2.50
2022-10-06T04:30:36.145Z,2.53
2022-10-06T04:35:38.888Z,3.20
2022-10-06T04:40:41.779Z,2.50
2022-10-06T04:45:44.042Z,2.47
2022-10-06T04:50:57.107Z,3.50
2022-10-06T04:56:19.106Z,2.93
2022-10-06T05:01:21.866Z,4.00
2022-10-06T05:06:26.740Z,4.87
2022-10-06T05:11:32.057Z,4.20
2022-10-06T05:16:37.768Z,3.50
2022-10-06T05:21:59.578Z,2.73
2022-10-06T05:27:08.691Z,3.85
2022-10-06T05:32:10.934Z,4.37
2022-10-06T05:37:31.855Z,3.30
2022-10-06T05:42:34.327Z,3.77
2022-10-06T05:47:36.936Z,4.03
2022-10-06T05:52:39.241Z,3.37
2022-10-06T05:57:42.160Z,6.93
2022-10-06T06:02:44.429Z,4.70
2022-10-06T06:07:48.296Z,3.80
2022-10-06T06:12:50.670Z,3.60
2022-10-06T06:18:13.107Z,4.23
2022-10-06T06:23:36.659Z,7.37
2022-10-06T06:28:42.841Z,8.23
2022-10-06T06:33:45.878Z,8.83
2022-10-06T06:38:52.056Z,7.53
2022-10-06T06:43:57.025Z,5.83
2022-10-06T06:49:12.230Z,4.80
2022-10-06T06:54:19.532Z,3.73
2022-10-06T06:59:45.819Z,4.20
2022-10-06T07:05:11.774Z,3.40
2022-10-06T07:10:14.658Z,2.63
2022-10-06T07:15:53.833Z,3.17
2022-10-06T07:21:14.491Z,3.60
2022-10-06T07:26:17.008Z,3.50
2022-10-06T07:31:20.033Z,2.70
2022-10-06T07:36:46.107Z,3.00
2022-10-06T07:42:08.060Z,3.40
2022-10-06T07:47:11.201Z,3.70
2022-10-06T07:52:31.335Z,3.07
2022-10-06T07:57:35.535Z,3.17
2022-10-06T08:02:56.374Z,3.80
2022-10-06T08:07:58.847Z,3.10
2022-10-06T08:13:01.946Z,3.97
2022-10-06T08:18:12.185Z,3.80
2022-10-06T08:23:32.643Z,3.63
2022-10-06T08:28:36.766Z,3.50
2022-10-06T08:33:40.152Z,3.13
2022-10-06T08:39:01.552Z,3.07
2022-10-06T08:44:16.066Z,3.00
2022-10-06T08:49:46.067Z,3.03
2022-10-06T08:54:59.756Z,3.40
2022-10-06T09:00:19.689Z,3.17
2022-10-06T09:05:28.708Z,4.47
2022-10-06T09:10:36.926Z,4.00
2022-10-06T09:15:45.054Z,4.53
2022-10-06T09:21:18.420Z,4.40
2022-10-06T09:26:24.012Z,4.07
2022-10-06T09:31:50.779Z,4.30
2022-10-06T09:37:13.002Z,4.93
2022-10-06T09:42:35.777Z,4.60
2022-10-06T09:48:13.021Z,4.43
2022-10-06T09:53:16.476Z,4.73
2022-10-06T09:58:30.658Z,4.37
2022-10-06T10:04:01.870Z,5.83
2022-10-06T10:09:21.812Z,5.03
2022-10-06T10:14:24.837Z,4.83
2022-10-06T10:19:33.801Z,5.00
2022-10-06T10:24:39.021Z,4.35
2022-10-06T10:29:45.821Z,5.60
2022-10-06T10:35:16.774Z,4.87
2022-10-06T10:40:35.634Z,6.20
2022-10-06T10:45:58.143Z,5.40
2022-10-06T10:51:09.480Z,5.57
2022-10-06T10:56:12.620Z,6.37
2022-10-06T11:01:35.616Z,5.27
2022-10-06T11:06:55.269Z,5.30
2022-10-06T11:12:11.192Z,5.67
2022-10-06T11:17:32.061Z,5.13
2022-10-06T11:23:08.452Z,4.87
2022-10-06T11:28:39.562Z,5.70
2022-10-06T11:34:09.515Z,5.50
2022-10-06T11:39:34.376Z,5.30
2022-10-06T11:44:43.098Z,6.50
2022-10-06T11:49:49.664Z,6.93
2022-10-06T11:55:16.257Z,5.33
2022-10-06T12:00:43.196Z,4.60
2022-10-06T12:06:00.725Z,5.10
2022-10-06T12:11:03.218Z,4.83
2022-10-06T12:22:22.688Z,4.80
2022-10-06T12:28:02.714Z,5.03
2022-10-06T12:33:05.964Z,5.30
2022-10-06T12:38:35.831Z,7.00
2022-10-06T12:43:54.904Z,4.40
2022-10-06T12:49:24.158Z,5.60
2022-10-06T12:54:40.187Z,5.43
2022-10-06T12:59:42.546Z,5.37
2022-10-06T13:04:54.343Z,5.13
2022-10-06T13:10:21.842Z,4.80
2022-10-06T13:15:43.467Z,5.03
2022-10-06T13:20:58.520Z,5.60
2022-10-06T13:26:27.897Z,5.20
2022-10-06T13:31:52.942Z,5.90
2022-10-06T13:36:56.050Z,5.27
2022-10-06T13:42:55.878Z,6.07
2022-10-06T13:48:27.506Z,5.63
2022-10-06T13:53:31.947Z,5.00
2022-10-06T13:58:34.148Z,5.00
2022-10-06T14:08:58.782Z,5.83
2022-10-06T14:14:03.415Z,6.03
2022-10-06T14:19:06.472Z,4.80
2022-10-06T14:24:19.118Z,5.77
2022-10-06T14:29:41.521Z,5.20
2022-10-06T14:34:43.913Z,4.80
2022-10-06T14:39:46.586Z,5.30
2022-10-06T14:44:48.756Z,4.73
2022-10-06T14:50:09.804Z,5.27
2022-10-06T14:55:31.418Z,5.03
2022-10-06T15:00:33.625Z,5.13
2022-10-06T15:05:55.690Z,5.57
2022-10-06T15:10:57.796Z,6.83
2022-10-06T15:16:00.185Z,4.80
2022-10-06T15:21:04.109Z,5.63
2022-10-06T15:26:25.338Z,5.60
2022-10-06T15:31:55.153Z,5.28
2022-10-06T15:36:58.228Z,5.87
2022-10-06T15:42:00.885Z,5.93
2022-10-06T15:47:05.906Z,5.63
2022-10-06T15:52:11.201Z,5.50
2022-10-06T15:57:20.282Z,6.87
2022-10-06T16:02:42.306Z,5.97
2022-10-06T16:07:44.609Z,5.87
2022-10-06T16:12:49.234Z,7.60
2022-10-06T16:17:51.400Z,7.17
2022-10-06T16:22:56.559Z,6.03
2022-10-06T16:27:59.010Z,6.73
2022-10-06T16:33:01.194Z,6.30
2022-10-06T16:38:04.389Z,5.97
2022-10-06T16:43:06.655Z,6.30
2022-10-06T16:48:08.848Z,7.00
2022-10-06T16:53:16.876Z,6.53
2022-10-06T16:58:19.497Z,7.10
2022-10-06T17:03:21.633Z,6.37
2022-10-06T17:08:24.050Z,7.20
2022-10-06T17:13:46.374Z,7.03
2022-10-06T17:18:53.375Z,7.33
2022-10-06T17:24:14.193Z,6.83
2022-10-06T17:29:21.628Z,6.43
2022-10-06T17:34:27.740Z,7.20
2022-10-06T17:39:32.898Z,6.78
2022-10-06T17:44:35.687Z,5.57
2022-10-06T17:49:37.914Z,6.30
2022-10-06T17:54:44.772Z,6.57
2022-10-06T17:59:48.251Z,7.07
2022-10-06T18:04:53.571Z,6.33
2022-10-06T18:10:14.136Z,6.90
2022-10-06T18:15:17.753Z,7.37
2022-10-06T18:20:30.190Z,6.97
2022-10-06T18:25:32.887Z,7.03
2022-10-06T18:30:40.673Z,7.10
2022-10-06T18:41:12.990Z,6.87
2022-10-06T18:52:31.761Z,6.67
2022-10-06T18:57:34.036Z,7.50
2022-10-06T19:02:36.251Z,8.07
2022-10-06T19:07:38.401Z,7.20
2022-10-06T19:12:40.581Z,7.50
2022-10-06T19:17:45.765Z,6.73
2022-10-06T19:22:48.101Z,6.97
2022-10-06T19:27:51.408Z,8.03
2022-10-06T19:33:12.408Z,7.13
2022-10-06T19:38:14.602Z,7.67
2022-10-06T19:43:17.405Z,7.40
2022-10-06T19:48:20.288Z,6.93
2022-10-06T19:53:22.761Z,6.87
2022-10-06T19:58:43.520Z,7.53
2022-10-06T20:03:45.856Z,6.93
2022-10-06T20:09:09.075Z,7.43
2022-10-06T20:14:21.076Z,6.97
2022-10-06T20:19:25.633Z,7.30
2022-10-06T20:24:28.056Z,7.43
2022-10-06T20:29:31.309Z,9.13
2022-10-06T20:34:52.183Z,7.90
2022-10-06T20:40:12.805Z,8.30
2022-10-06T20:45:33.504Z,8.33
2022-10-06T20:50:35.840Z,7.53
2022-10-06T20:55:41.103Z,7.00
2022-10-06T21:01:10.819Z,7.57
2022-10-06T21:06:16.809Z,8.60
2022-10-06T21:11:23.369Z,7.57
2022-10-06T21:16:34.144Z,7.50
2022-10-06T21:21:37.805Z,6.80
2022-10-06T21:26:42.815Z,7.17
2022-10-06T21:31:45.337Z,6.67
2022-10-06T21:37:07.235Z,6.87
2022-10-06T21:42:09.467Z,6.53
2022-10-06T21:47:11.893Z,7.57
2022-10-06T21:52:14.089Z,7.17
2022-10-06T21:57:16.240Z,6.17
2022-10-06T22:02:18.408Z,6.37
2022-10-06T22:07:20.621Z,7.17
2022-10-06T22:12:22.784Z,6.30
2022-10-06T22:17:26.821Z,6.03
2022-10-06T22:22:29.039Z,6.13
2022-10-06T22:27:32.475Z,7.23
2022-10-06T22:32:34.627Z,6.73
2022-10-06T22:37:55.649Z,6.30
2022-10-06T22:42:57.832Z,5.73
2022-10-06T22:48:00.003Z,6.57
2022-10-06T22:53:23.420Z,5.50
2022-10-06T22:58:26.035Z,5.77
2022-10-06T23:03:28.390Z,6.97
2022-10-06T23:08:35.095Z,6.03
2022-10-06T23:13:38.069Z,5.73
2022-10-06T23:18:41.330Z,5.80
2022-10-06T23:23:43.595Z,6.07
2022-10-06T23:28:47.231Z,5.63
2022-10-06T23:33:49.539Z,6.40
2022-10-06T23:38:51.932Z,5.10
2022-10-06T23:43:54.077Z,5.20
2022-10-06T23:48:56.261Z,5.20
2022-10-06T23:53:58.446Z,4.63
2022-10-06T23:59:00.657Z,5.63
